Südanflug-Wetter

Südanflüge sind sowohl am Euroairport Basel-Mulhouse-Freiburg als auch am Flughafen Unique Zürich ein Thema für die Anwohner. In Basel hängen Südanflüge von den Windverhältnissen ab. Für den Euroairport Basel-Mulhouse-Freiburg bereitet MeteoNews deshalb aktuelle Winddaten auf, die direkt auf der Homepage des Flughafens eingebunden werden. Angaben zum Flughafen Zürich finden Sie hier.

In Zürich sind Südanflüge auf die Piste 34 möglich, wenn die horizontale Sichtweite mindestens 750 m beträgt und die Wolkenuntergrenze im Anflugsektor nicht tiefer als 300 Fuss (knapp 100 m) liegt (diese Werte gelten seit dem 1. November 2004).

Prognose für Südanflüge

Am Freitag sind Südanflüge möglich.
(Prognose ohne Gewähr. Die Vorhersage wird mehrmals täglich aktualisiert. Verantwortlicher Meteorologe: Roger Perret, 19.07.2018 15:21)

Analyse der letzten METAR-Messungen

Unser Tool wertet die letzten 20 offiziellen Wettermeldungen (METAR) des Flughafens Zürich aus und entscheidet aufgrund der beiden Werte für Sichtweite und Ceiling (Hauptwolkenuntergrenze), ob Südanflüge nach obiger Definition möglich wären. Allerdings repräsentiert der Wert für die Wolkenuntergrenze in der METAR-Meldung nicht die Bewölkung im Anflugsektor sondern generell um den Flughafen. Da über die Bewölkung im Anflugsektor kurzfristig aufgrund von Beobachtungen des Towers und von Piloten entschieden wird, kann die Angabe unseres Tools in gewissen Fällen von den realen Entscheiden der Flugsicherung abweichen.

Südanflüge Datum Uhrzeit Sichtweite Ceiling Vollständige METAR-Meldung
möglich 2018-07-19 18:50:00 > 10 km LSZH 191650Z 03004KT CAVOK 30/10 Q1015 NOSIG
möglich 2018-07-19 18:20:00 > 10 km LSZH 191620Z 05004KT 350V090 CAVOK 30/10 Q1015 NOSIG
möglich 2018-07-19 17:50:00 > 10 km LSZH 191550Z 09008KT 040V110 CAVOK 30/10 Q1015 NOSIG
möglich 2018-07-19 17:20:00 > 10 km LSZH 191520Z VRB02KT CAVOK 30/11 Q1015 NOSIG
möglich 2018-07-19 16:50:00 > 10 km LSZH 191450Z VRB04KT 9999 FEW078 30/11 Q1015 NOSIG
möglich 2018-07-19 16:20:00 > 10 km LSZH 191420Z 01005KT 290V100 9999 FEW076 30/11 Q1016 NOSIG
möglich 2018-07-19 15:50:00 > 10 km LSZH 191350Z VRB07KT 9999 FEW075 30/10 Q1016 NOSIG
möglich 2018-07-19 15:20:00 > 10 km LSZH 191320Z 07007KT 040V120 9999 FEW070 30/09 Q1016 NOSIG
möglich 2018-07-19 14:50:00 > 10 km LSZH 191250Z 08007KT 020V130 9999 FEW068 30/11 Q1016 NOSIG
möglich 2018-07-19 14:20:00 > 10 km LSZH 191220Z 09007KT 040V120 9999 FEW068 30/12 Q1016 NOSIG
möglich 2018-07-19 13:50:00 > 10 km LSZH 191150Z 03005KT 340V090 9999 FEW068 29/12 Q1017 NOSIG
möglich 2018-07-19 13:20:00 > 10 km LSZH 191120Z 03007KT 350V070 9999 FEW065 28/12 Q1017 NOSIG
möglich 2018-07-19 12:50:00 > 10 km LSZH 191050Z 02004KT 290V100 9999 FEW060 28/13 Q1017 NOSIG
möglich 2018-07-19 12:20:00 > 10 km LSZH 191020Z 03005KT 350V080 9999 FEW060 28/12 Q1017 NOSIG
möglich 2018-07-19 11:50:00 > 10 km LSZH 190950Z 02005KT 320V070 CAVOK 26/13 Q1017 NOSIG
möglich 2018-07-19 11:20:00 > 10 km LSZH 190920Z VRB02KT CAVOK 25/12 Q1018 NOSIG
möglich 2018-07-19 10:50:00 > 10 km LSZH 190850Z 01004KT 310V070 CAVOK 25/12 Q1018 NOSIG
möglich 2018-07-19 10:20:00 > 10 km LSZH 190820Z VRB03KT CAVOK 24/12 Q1018 NOSIG
möglich 2018-07-19 09:50:00 > 10 km LSZH 190750Z VRB02KT CAVOK 23/12 Q1018 NOSIG
möglich 2018-07-19 09:20:00 > 10 km LSZH 190720Z 33004KT 290V040 CAVOK 22/11 Q1018 NOSIG